Time;durP1;ratioP1;P1;durP2;ratioP2;P2;SDS_P1;SDS_P2;PMS_P1;PMS_P2;Temp;Humidity;BMP_temperature;BMP_pressure;BME280_temperature;BME280_humidity;BME280_pressure;Samples;Min_cycle;Max_cycle;Signal;HPM_P1;HPM_P2
2023/04/16 00:02:00;;;;;;;12.73;4.93;;;;;;;7.61;100.00;101762.66;5065632;28;20041;-78
2023/04/16 00:04:25;;;;;;;12.27;4.90;;;;;;;7.82;100.00;101757.66;5069221;28;20086;-77
2023/04/16 00:06:51;;;;;;;11.50;4.75;;;;;;;7.71;100.00;101755.06;5079509;28;20036;-78
2023/04/16 00:09:16;;;;;;;10.35;4.07;;;;;;;7.59;100.00;101760.19;5032800;28;20035;-77
2023/04/16 00:11:42;;;;;;;18.65;5.50;;;;;;;7.65;100.00;101758.91;5048644;28;20043;-78
2023/04/16 00:14:07;;;;;;;11.32;4.82;;;;;;;7.55;100.00;101761.34;5051806;28;20075;-78
2023/04/16 00:16:33;;;;;;;14.70;5.38;;;;;;;7.73;100.00;101756.59;5051012;28;20521;-78
2023/04/16 00:18:58;;;;;;;11.93;5.00;;;;;;;7.67;100.00;101761.41;5049737;28;20379;-79
2023/04/16 00:21:25;;;;;;;14.75;4.80;;;;;;;7.62;100.00;101753.97;5032210;28;20372;-77
2023/04/16 00:23:50;;;;;;;13.80;5.18;;;;;;;7.59;100.00;101761.94;5062359;28;20029;-78
2023/04/16 00:26:16;;;;;;;23.20;5.88;;;;;;;7.67;100.00;101754.47;5079471;28;20044;-78
2023/04/16 00:28:43;;;;;;;12.73;4.68;;;;;;;7.68;100.00;101758.66;5064509;28;20098;-77
2023/04/16 00:31:09;;;;;;;16.60;5.78;;;;;;;7.62;100.00;101759.13;5060377;28;20482;-77
2023/04/16 00:33:34;;;;;;;15.48;6.18;;;;;;;7.64;100.00;101751.28;5050124;28;20036;-77
2023/04/16 00:36:00;;;;;;;15.77;5.63;;;;;;;7.66;100.00;101757.16;5066548;28;20048;-78
2023/04/16 00:38:29;;;;;;;17.55;6.82;;;;;;;7.68;100.00;101758.66;5064241;28;20035;-79
2023/04/16 00:40:57;;;;;;;14.95;6.50;;;;;;;7.63;100.00;101752.22;5057595;28;20037;-78
2023/04/16 00:43:24;;;;;;;14.43;5.53;;;;;;;7.69;100.00;101754.34;5029595;28;20037;-78
2023/04/16 00:45:55;;;;;;;17.50;6.40;;;;;;;7.64;100.00;101743.53;5027642;28;20116;-78
2023/04/16 00:48:21;;;;;;;15.02;6.10;;;;;;;7.83;100.00;101751.53;5065433;28;20032;-78
2023/04/16 00:50:47;;;;;;;18.50;5.53;;;;;;;7.78;100.00;101743.34;5044370;28;20391;-76
2023/04/16 00:53:13;;;;;;;17.30;5.53;;;;;;;7.75;100.00;101743.56;5042763;28;20029;-77
2023/04/16 00:55:39;;;;;;;17.02;6.00;;;;;;;7.83;100.00;101748.97;5043029;28;20098;-77
2023/04/16 00:58:05;;;;;;;17.15;5.80;;;;;;;7.67;100.00;101751.88;5028596;28;20089;-78
2023/04/16 01:00:31;;;;;;;14.88;5.82;;;;;;;7.62;100.00;101759.13;5044838;28;20048;-77
2023/04/16 01:02:57;;;;;;;15.85;6.15;;;;;;;7.64;100.00;101756.44;5060708;28;20028;-78
2023/04/16 01:05:22;;;;;;;16.02;5.70;;;;;;;7.50;100.00;101760.06;5060209;28;20623;-77
2023/04/16 01:07:49;;;;;;;14.00;5.50;;;;;;;7.59;100.00;101767.94;5060746;28;20148;-78
2023/04/16 01:10:15;;;;;;;21.17;6.57;;;;;;;7.54;100.00;101761.47;5064936;28;20033;-78
2023/04/16 01:12:40;;;;;;;18.38;6.45;;;;;;;7.51;100.00;101770.25;5078360;28;20036;-78
2023/04/16 01:15:06;;;;;;;18.85;7.63;;;;;;;7.50;100.00;101772.97;5049421;28;22597;-78
2023/04/16 01:17:32;;;;;;;19.92;6.70;;;;;;;7.46;100.00;101769.78;5045848;28;20089;-78
2023/04/16 01:20:00;;;;;;;18.60;6.65;;;;;;;7.60;100.00;101766.16;5069892;28;20033;-77
2023/04/16 01:22:27;;;;;;;16.50;7.47;;;;;;;7.52;100.00;101777.06;5046466;28;20020;-77
2023/04/16 01:24:53;;;;;;;19.80;6.90;;;;;;;7.56;100.00;101767.34;5055823;28;20029;-78
2023/04/16 01:27:18;;;;;;;14.48;6.32;;;;;;;7.52;100.00;101773.66;5047843;28;20367;-77
2023/04/16 01:29:44;;;;;;;19.58;6.80;;;;;;;7.61;100.00;101775.56;5063643;28;20088;-77
2023/04/16 01:32:10;;;;;;;17.45;7.40;;;;;;;7.47;100.00;101779.16;5060755;28;20442;-78
2023/04/16 01:34:39;;;;;;;19.67;6.40;;;;;;;7.43;100.00;101776.91;5032463;28;20536;-78
2023/04/16 01:37:04;;;;;;;20.17;7.22;;;;;;;7.48;100.00;101767.91;5058736;28;20040;-77
2023/04/16 01:39:30;;;;;;;23.05;7.45;;;;;;;7.53;100.00;101777.88;5066948;28;20028;-77
2023/04/16 01:41:56;;;;;;;19.33;6.78;;;;;;;7.59;100.00;101762.78;5061844;28;20024;-77
2023/04/16 01:44:22;;;;;;;19.52;6.78;;;;;;;7.54;100.00;101764.88;5047367;28;20162;-78
2023/04/16 01:46:47;;;;;;;17.30;7.03;;;;;;;7.56;100.00;101775.09;5060258;28;20062;-77
2023/04/16 01:49:14;;;;;;;16.30;7.20;;;;;;;7.48;100.00;101770.47;5056628;28;20036;-78
2023/04/16 01:51:40;;;;;;;20.73;8.48;;;;;;;7.42;100.00;101773.50;5030291;28;20406;-77
2023/04/16 01:54:06;;;;;;;18.83;8.18;;;;;;;7.45;100.00;101773.28;5046969;28;20078;-79
2023/04/16 01:56:32;;;;;;;17.77;8.05;;;;;;;7.51;100.00;101777.16;5058294;28;20040;-78
2023/04/16 01:58:57;;;;;;;20.02;7.30;;;;;;;7.44;100.00;101770.81;5042693;28;20021;-78
2023/04/16 02:01:26;;;;;;;13.65;7.47;;;;;;;7.47;100.00;101776.56;5074232;28;20185;-78
2023/04/16 02:03:52;;;;;;;27.85;8.50;;;;;;;7.45;100.00;101778.44;5050094;28;20394;-79
2023/04/16 02:06:18;;;;;;;25.52;8.55;;;;;;;7.41;100.00;101775.25;5043832;28;20095;-78
2023/04/16 02:08:45;;;;;;;21.92;8.07;;;;;;;7.50;100.00;101778.13;5048008;28;20024;-78
2023/04/16 02:11:13;;;;;;;15.85;7.72;;;;;;;7.56;100.00;101772.50;5039390;28;20028;-78
2023/04/16 02:13:38;;;;;;;20.75;8.60;;;;;;;7.49;100.00;101779.03;5078011;28;20028;-77
2023/04/16 02:16:04;;;;;;;19.00;9.07;;;;;;;7.60;100.00;101774.72;5047991;28;20082;-78
2023/04/16 02:18:50;;;;;;;21.25;9.18;;;;;;;7.68;100.00;101776.75;5063105;28;20376;-78
2023/04/16 02:21:19;;;;;;;21.42;8.45;;;;;;;7.63;100.00;101773.69;5054714;28;20036;-78
2023/04/16 02:23:46;;;;;;;25.20;9.85;;;;;;;7.46;100.00;101768.94;5057981;28;20498;-78
2023/04/16 02:26:12;;;;;;;20.88;10.05;;;;;;;7.38;100.00;101772.06;5030244;28;20036;-78
2023/04/16 02:28:39;;;;;;;22.77;8.55;;;;;;;7.39;100.00;101771.97;5030360;28;20147;-78
2023/04/16 02:31:05;;;;;;;21.75;9.57;;;;;;;7.49;100.00;101776.47;5047238;28;20032;-78
2023/04/16 02:33:38;;;;;;;26.05;10.25;;;;;;;7.49;100.00;101774.69;5026811;28;20040;-78
2023/04/16 02:36:04;;;;;;;24.73;9.38;;;;;;;7.45;100.00;101768.13;5029569;28;20055;-77
2023/04/16 02:38:29;;;;;;;23.85;10.23;;;;;;;7.57;100.00;101767.22;5040305;28;20069;-77
2023/04/16 02:40:55;;;;;;;28.13;10.63;;;;;;;7.60;100.00;101766.97;5029538;28;20025;-77
2023/04/16 02:43:20;;;;;;;27.63;11.25;;;;;;;7.45;100.00;101770.69;5063866;28;20029;-78
2023/04/16 02:45:46;;;;;;;35.65;12.30;;;;;;;7.41;100.00;101774.44;5043766;28;20288;-78
2023/04/16 02:48:12;;;;;;;33.60;10.73;;;;;;;7.35;100.00;101774.88;5051312;28;20036;-78
2023/04/16 02:50:37;;;;;;;25.88;10.75;;;;;;;7.46;100.00;101774.09;5033529;28;20037;-77
2023/04/16 02:53:03;;;;;;;26.33;10.63;;;;;;;7.54;100.00;101780.34;5047261;28;20028;-78
2023/04/16 02:55:28;;;;;;;27.75;11.38;;;;;;;7.55;100.00;101778.59;5044241;28;20495;-77
2023/04/16 02:57:54;;;;;;;29.20;11.45;;;;;;;7.66;100.00;101780.38;5064340;28;20469;-78
2023/04/16 03:00:20;;;;;;;27.33;12.35;;;;;;;7.53;100.00;101780.47;5043720;28;20037;-79
2023/04/16 03:02:45;;;;;;;31.52;12.32;;;;;;;7.49;100.00;101785.00;5062023;28;20055;-78
2023/04/16 03:05:11;;;;;;;30.75;11.73;;;;;;;7.55;100.00;101787.19;5050137;28;20487;-78
2023/04/16 03:07:38;;;;;;;28.13;12.18;;;;;;;7.42;100.00;101783.81;5034141;28;20036;-78
2023/04/16 03:10:04;;;;;;;31.48;12.77;;;;;;;7.48;100.00;101783.38;5046892;28;20517;-79
2023/04/16 03:12:30;;;;;;;30.65;12.15;;;;;;;7.40;100.00;101790.84;5083611;28;20041;-78
2023/04/16 03:14:55;;;;;;;30.00;12.48;;;;;;;7.52;100.00;101795.13;5064672;28;20036;-77
2023/04/16 03:17:21;;;;;;;34.28;13.20;;;;;;;7.45;100.00;101795.69;5061890;28;20502;-78
2023/04/16 03:19:46;;;;;;;38.55;13.30;;;;;;;7.46;100.00;101795.59;5046922;28;20055;-78
2023/04/16 03:22:12;;;;;;;38.42;13.82;;;;;;;7.50;100.00;101796.19;5066097;28;20037;-78
2023/04/16 03:24:37;;;;;;;28.45;13.60;;;;;;;7.45;100.00;101791.34;5045136;28;20047;-78
2023/04/16 03:27:03;;;;;;;29.60;12.55;;;;;;;7.49;100.00;101803.09;5065831;28;20545;-79
2023/04/16 03:29:28;;;;;;;35.58;14.40;;;;;;;7.45;100.00;101799.09;5064221;28;20029;-78
2023/04/16 03:31:55;;;;;;;34.67;13.07;;;;;;;7.41;100.00;101795.09;5049838;28;20750;-78
2023/04/16 03:34:22;;;;;;;33.58;14.52;;;;;;;7.50;100.00;101796.19;5049245;28;20043;-78
2023/04/16 03:36:47;;;;;;;38.13;13.68;;;;;;;7.48;100.00;101803.19;5050002;28;20029;-78
2023/04/16 03:39:13;;;;;;;32.03;13.95;;;;;;;7.59;100.00;101801.50;5061391;28;20098;-77
2023/04/16 03:41:38;;;;;;;36.83;13.65;;;;;;;7.54;100.00;101801.00;5057519;28;20025;-77
2023/04/16 03:44:04;;;;;;;37.05;14.48;;;;;;;7.48;100.00;101800.59;5053549;28;20024;-78
2023/04/16 03:46:31;;;;;;;32.83;13.65;;;;;;;7.45;100.00;101798.28;5063089;28;21597;-77
2023/04/16 03:48:56;;;;;;;39.33;14.82;;;;;;;7.48;100.00;101801.44;5063733;28;20021;-78
2023/04/16 03:51:23;;;;;;;33.45;14.57;;;;;;;7.44;100.00;101800.03;5044258;28;20033;-78
2023/04/16 03:53:48;;;;;;;41.13;15.07;;;;;;;7.48;100.00;101806.63;5047303;28;20040;-77
2023/04/16 03:56:14;;;;;;;34.63;13.52;;;;;;;7.41;100.00;101802.81;5048764;28;20040;-78
2023/04/16 03:58:40;;;;;;;36.42;14.85;;;;;;;7.41;100.00;101802.81;5032584;28;20059;-79
2023/04/16 04:01:06;;;;;;;33.95;15.07;;;;;;;7.41;100.00;101810.56;5051892;28;20057;-78
2023/04/16 04:03:32;;;;;;;33.45;13.80;;;;;;;7.40;100.00;101807.16;5051246;28;20032;-78
2023/04/16 04:05:57;;;;;;;38.28;14.35;;;;;;;7.49;100.00;101808.25;5065460;28;20039;-78
2023/04/16 04:08:27;;;;;;;35.83;14.18;;;;;;;7.50;100.00;101816.84;5052383;28;20474;-79
2023/04/16 04:10:52;;;;;;;37.20;14.38;;;;;;;7.50;100.00;101812.50;5049526;28;20062;-79
2023/04/16 04:13:20;;;;;;;30.77;14.85;;;;;;;7.49;100.00;101812.59;5033848;28;20046;-78
2023/04/16 04:15:47;;;;;;;34.95;15.05;;;;;;;7.52;100.00;101813.19;5048783;28;20414;-79
2023/04/16 04:18:12;;;;;;;37.45;14.45;;;;;;;7.46;100.00;101802.47;5051923;28;20036;-79
2023/04/16 04:20:39;;;;;;;37.88;14.10;;;;;;;7.47;100.00;101807.53;5050354;28;20044;-78
2023/04/16 04:23:05;;;;;;;36.30;14.80;;;;;;;7.53;100.00;101812.25;5064197;28;20547;-78
2023/04/16 04:25:31;;;;;;;40.42;14.73;;;;;;;7.52;100.00;101815.78;5062440;28;20041;-77
2023/04/16 04:27:58;;;;;;;38.65;15.70;;;;;;;7.59;100.00;101813.56;5030458;28;20680;-78
2023/04/16 04:30:23;;;;;;;38.38;13.35;;;;;;;7.56;100.00;101819.78;5031566;28;20033;-78
2023/04/16 04:32:48;;;;;;;38.47;14.63;;;;;;;7.58;100.00;101817.09;5030916;28;20028;-77
2023/04/16 04:35:15;;;;;;;38.33;15.80;;;;;;;7.57;100.00;101818.00;5045328;28;20044;-77
2023/04/16 04:37:40;;;;;;;39.05;14.75;;;;;;;7.62;100.00;101820.28;5064875;28;20445;-78
2023/04/16 04:40:12;;;;;;;41.70;15.65;;;;;;;7.71;100.00;101817.03;5047214;28;20684;-78
2023/04/16 04:42:38;;;;;;;38.53;14.57;;;;;;;7.62;100.00;101822.84;5046848;28;20208;-78
2023/04/16 04:45:04;;;;;;;36.90;15.50;;;;;;;7.66;100.00;101824.28;5057646;28;20025;-78
2023/04/16 04:47:32;;;;;;;36.35;15.60;;;;;;;7.63;100.00;101827.06;5032315;28;20025;-78
2023/04/16 04:49:57;;;;;;;39.55;16.23;;;;;;;7.62;100.00;101831.41;5043506;28;20039;-77
2023/04/16 04:52:23;;;;;;;41.53;16.85;;;;;;;7.57;100.00;101828.34;5060384;28;20025;-76
2023/04/16 04:54:49;;;;;;;42.30;14.98;;;;;;;7.52;100.00;101833.03;5050952;28;20040;-78
2023/04/16 04:57:15;;;;;;;32.63;14.57;;;;;;;7.48;100.00;101840.16;5048409;28;20114;-78
2023/04/16 04:59:42;;;;;;;35.45;15.90;;;;;;;7.46;100.00;101834.28;5066714;28;20388;-78
2023/04/16 05:02:09;;;;;;;46.20;17.08;;;;;;;7.54;100.00;101834.56;5048898;28;20037;-79
2023/04/16 05:04:34;;;;;;;36.08;15.30;;;;;;;7.67;100.00;101846.59;5066318;28;20031;-77
2023/04/16 05:07:01;;;;;;;41.80;14.98;;;;;;;7.62;100.00;101848.66;5048915;28;20040;-78
2023/04/16 05:09:26;;;;;;;35.53;14.93;;;;;;;7.54;100.00;101842.28;5047177;28;20470;-78
2023/04/16 05:11:52;;;;;;;29.92;13.88;;;;;;;7.53;100.00;101839.81;5043703;28;20032;-78
2023/04/16 05:14:17;;;;;;;36.25;14.95;;;;;;;7.60;100.00;101846.19;5063202;28;20526;-79
2023/04/16 05:16:43;;;;;;;36.08;14.90;;;;;;;7.57;100.00;101844.66;5029654;28;20049;-78
2023/04/16 05:19:08;;;;;;;42.00;16.23;;;;;;;7.71;100.00;101845.44;5048393;28;20406;-78
2023/04/16 05:21:34;;;;;;;43.75;14.85;;;;;;;7.66;100.00;101844.94;5061885;28;20129;-78
2023/04/16 05:23:59;;;;;;;36.80;15.00;;;;;;;7.65;100.00;101851.84;5064336;28;20044;-78
2023/04/16 05:26:25;;;;;;;43.15;16.85;;;;;;;7.66;100.00;101847.50;5045270;28;20040;-78
2023/04/16 05:28:50;;;;;;;38.28;15.63;;;;;;;7.62;100.00;101849.47;5049451;28;20024;-78
2023/04/16 05:31:16;;;;;;;45.95;16.45;;;;;;;7.66;100.00;101850.09;5047338;28;20040;-78
2023/04/16 05:33:41;;;;;;;44.78;16.80;;;;;;;7.58;100.00;101861.78;5046658;28;20482;-78
2023/04/16 05:36:06;;;;;;;43.88;16.10;;;;;;;7.62;100.00;101857.22;5065860;28;20117;-78
2023/04/16 05:38:32;;;;;;;43.08;15.77;;;;;;;7.77;100.00;101860.47;5031241;28;20048;-78
2023/04/16 05:40:57;;;;;;;43.75;16.77;;;;;;;7.79;100.00;101859.41;5062552;28;20037;-78
2023/04/16 05:43:23;;;;;;;44.47;17.05;;;;;;;7.76;100.00;101869.13;5046721;28;20477;-78
2023/04/16 05:45:48;;;;;;;36.50;16.42;;;;;;;7.62;100.00;101871.91;5059731;28;20043;-78
2023/04/16 05:48:14;;;;;;;57.72;18.98;;;;;;;7.63;100.00;101874.38;5062611;28;20093;-77
2023/04/16 05:50:39;;;;;;;44.63;16.38;;;;;;;7.65;100.00;101877.66;5044409;28;20028;-78
2023/04/16 05:53:07;;;;;;;51.60;20.00;;;;;;;7.67;100.00;101888.72;5045940;28;20032;-78
2023/04/16 05:55:32;;;;;;;56.22;18.65;;;;;;;7.53;100.00;101886.28;5061902;28;20047;-79
2023/04/16 05:57:58;;;;;;;46.67;17.73;;;;;;;7.54;100.00;101893.09;5048124;28;20037;-80
2023/04/16 06:00:24;;;;;;;52.80;18.75;;;;;;;7.60;100.00;101893.47;5062850;28;20414;-78
2023/04/16 06:02:49;;;;;;;44.05;19.17;;;;;;;7.59;100.00;101893.56;5041422;28;20033;-77
2023/04/16 06:05:15;;;;;;;58.17;19.92;;;;;;;7.65;100.00;101893.16;5031534;28;20047;-78
2023/04/16 06:07:41;;;;;;;45.22;18.13;;;;;;;7.59;100.00;101896.16;5063008;28;20028;-78
2023/04/16 06:10:06;;;;;;;47.90;19.55;;;;;;;7.67;100.00;101896.47;5060517;28;20543;-78
2023/04/16 06:12:32;;;;;;;48.90;19.20;;;;;;;7.73;100.00;101900.34;5064201;28;20036;-78
2023/04/16 06:14:58;;;;;;;49.10;20.83;;;;;;;7.71;100.00;101902.22;5057432;28;20045;-77
2023/04/16 06:17:24;;;;;;;52.63;19.42;;;;;;;7.72;100.00;101896.09;5025504;28;20082;-78
2023/04/16 06:19:49;;;;;;;50.67;20.33;;;;;;;7.68;100.00;101910.19;5063576;28;20032;-78
2023/04/16 06:22:15;;;;;;;51.83;19.58;;;;;;;7.79;100.00;101910.22;5031880;28;20033;-78
2023/04/16 06:24:40;;;;;;;46.25;19.83;;;;;;;7.83;100.00;101906.50;5065160;28;20165;-78
2023/04/16 06:27:06;;;;;;;47.00;19.30;;;;;;;7.71;100.00;101907.38;5044613;28;20051;-77
2023/04/16 06:29:31;;;;;;;56.17;20.92;;;;;;;7.68;100.00;101920.50;5063819;28;20040;-79
2023/04/16 06:31:57;;;;;;;48.58;19.67;;;;;;;7.59;100.00;101915.06;5026212;28;20040;-79
2023/04/16 06:34:22;;;;;;;51.75;20.05;;;;;;;7.66;100.00;101919.78;5041797;28;20051;-78
2023/04/16 06:36:48;;;;;;;42.60;19.02;;;;;;;7.63;100.00;101917.41;5040182;28;20028;-79
2023/04/16 06:39:13;;;;;;;65.35;22.27;;;;;;;7.65;100.00;101920.72;5059930;28;20439;-78
2023/04/16 06:41:39;;;;;;;54.00;20.05;;;;;;;7.58;100.00;101922.91;5044233;28;20044;-79
2023/04/16 06:44:04;;;;;;;55.20;20.90;;;;;;;7.60;100.00;101929.63;5044934;28;20078;-79
2023/04/16 06:46:30;;;;;;;51.50;19.35;;;;;;;7.66;100.00;101930.94;5056361;28;20739;-79
2023/04/16 06:48:55;;;;;;;46.47;18.40;;;;;;;7.73;100.00;101928.75;5062262;28;20041;-79
2023/04/16 06:51:21;;;;;;;37.95;16.13;;;;;;;7.69;100.00;101928.16;5071990;28;20047;-78
2023/04/16 06:53:48;;;;;;;46.33;18.05;;;;;;;7.65;100.00;101933.63;5041427;28;20036;-79
2023/04/16 06:56:14;;;;;;;46.67;18.30;;;;;;;7.73;100.00;101934.72;5059729;28;20036;-79
2023/04/16 06:58:39;;;;;;;49.63;18.25;;;;;;;7.79;100.00;101926.53;5060522;28;20035;-78
2023/04/16 07:01:05;;;;;;;49.58;18.60;;;;;;;7.76;100.00;101933.69;5023188;28;20039;-79
2023/04/16 07:03:30;;;;;;;45.25;16.95;;;;;;;7.72;100.00;101933.09;5061061;28;20082;-79
2023/04/16 07:05:56;;;;;;;47.30;17.60;;;;;;;7.68;100.00;101936.00;5059751;28;20445;-78
2023/04/16 07:08:21;;;;;;;55.22;19.73;;;;;;;7.71;100.00;101948.69;5064742;28;20035;-78
2023/04/16 07:10:47;;;;;;;42.78;18.55;;;;;;;7.79;100.00;101943.81;5041314;28;20037;-78
2023/04/16 07:13:13;;;;;;;43.90;18.08;;;;;;;7.76;100.00;101944.00;5030286;28;20036;-79
2023/04/16 07:15:38;;;;;;;44.65;17.77;;;;;;;7.79;100.00;101948.97;5030757;28;20033;-78
2023/04/16 07:18:03;;;;;;;43.70;16.58;;;;;;;7.78;100.00;101948.16;5033404;28;20029;-79
2023/04/16 07:20:29;;;;;;;44.17;16.67;;;;;;;7.86;100.00;101950.19;5044836;28;20043;-78
2023/04/16 07:22:54;;;;;;;49.72;16.08;;;;;;;7.83;100.00;101949.56;5042635;28;20039;-79
2023/04/16 07:25:20;;;;;;;46.65;16.27;;;;;;;7.84;100.00;101951.22;5044029;28;20032;-79
2023/04/16 07:27:45;;;;;;;45.17;16.88;;;;;;;7.89;100.00;101957.72;5064091;28;21130;-79
2023/04/16 07:30:11;;;;;;;47.78;17.10;;;;;;;7.84;100.00;101958.97;5050680;28;20113;-79
2023/04/16 07:32:36;;;;;;;41.38;17.27;;;;;;;7.84;100.00;101952.06;5043105;28;20025;-79
2023/04/16 07:35:02;;;;;;;44.67;17.50;;;;;;;7.86;100.00;101963.09;5046633;28;20079;-79
2023/04/16 07:37:28;;;;;;;41.00;16.70;;;;;;;7.88;100.00;101963.81;5045489;28;20024;-79
2023/04/16 07:39:56;;;;;;;44.00;17.23;;;;;;;7.92;100.00;101961.81;5069025;28;20470;-79
2023/04/16 07:42:21;;;;;;;52.95;18.17;;;;;;;8.02;100.00;101972.31;5047312;28;20082;-78
2023/04/16 07:44:47;;;;;;;51.67;17.85;;;;;;;8.01;100.00;101968.09;5031225;28;20032;-79
2023/04/16 07:47:12;;;;;;;45.65;17.45;;;;;;;8.02;100.00;101972.31;5047158;28;20040;-79
2023/04/16 07:49:38;;;;;;;50.13;19.17;;;;;;;8.10;100.00;101972.56;5049998;28;20032;-78
2023/04/16 07:52:03;;;;;;;51.60;18.10;;;;;;;8.09;100.00;101973.53;5068475;28;20035;-78
2023/04/16 07:54:29;;;;;;;56.45;19.35;;;;;;;8.19;100.00;101972.75;5031427;28;20045;-79
2023/04/16 07:56:54;;;;;;;55.97;20.33;;;;;;;8.13;100.00;101968.00;5057822;28;20047;-78
2023/04/16 07:59:20;;;;;;;57.03;19.92;;;;;;;8.24;100.00;101967.25;5061426;28;20041;-78
2023/04/16 08:01:46;;;;;;;57.78;21.17;;;;;;;8.19;100.00;101972.75;5051941;28;20032;-79
2023/04/16 08:04:11;;;;;;;55.33;20.73;;;;;;;8.13;100.00;101969.78;5067199;28;20036;-79
2023/04/16 08:06:37;;;;;;;53.88;20.38;;;;;;;8.14;100.00;101979.19;5046891;28;20706;-79
2023/04/16 08:09:02;;;;;;;48.17;19.77;;;;;;;8.30;100.00;101968.56;5064477;28;20029;-78
2023/04/16 08:11:28;;;;;;;49.53;20.35;;;;;;;8.21;100.00;101977.78;5047873;28;20171;-78
2023/04/16 08:13:53;;;;;;;53.92;21.65;;;;;;;8.25;100.00;101975.81;5068262;28;20032;-79
2023/04/16 08:16:19;;;;;;;52.38;21.90;;;;;;;8.31;100.00;101986.53;5046067;28;20063;-78
2023/04/16 08:18:44;;;;;;;53.20;20.13;;;;;;;8.39;100.00;101984.19;5043982;28;20040;-78
2023/04/16 08:21:09;;;;;;;53.33;22.27;;;;;;;8.44;100.00;101983.06;5080260;28;20029;-80
2023/04/16 08:23:35;;;;;;;52.28;20.13;;;;;;;8.54;100.00;101979.69;5064628;28;20506;-78
2023/04/16 08:26:01;;;;;;;54.90;21.05;;;;;;;8.60;100.00;101987.94;5051718;28;20502;-78
2023/04/16 08:28:26;;;;;;;48.83;21.73;;;;;;;8.62;100.00;101986.06;5051581;28;20036;-79
2023/04/16 08:30:51;;;;;;;54.33;21.38;;;;;;;8.84;100.00;101991.28;5028929;28;20044;-79
2023/04/16 08:33:17;;;;;;;54.25;20.70;;;;;;;8.82;100.00;101989.75;5068089;28;20036;-79
2023/04/16 08:35:42;;;;;;;50.63;19.63;;;;;;;8.79;100.00;101995.16;5049125;28;20037;-78
2023/04/16 08:38:08;;;;;;;54.03;20.83;;;;;;;8.68;100.00;101995.94;5036500;28;20036;-79
2023/04/16 08:40:38;;;;;;;49.67;20.27;;;;;;;8.60;100.00;101998.28;5067641;28;20446;-78
2023/04/16 08:43:08;;;;;;;48.00;21.30;;;;;;;8.63;100.00;102004.06;5028742;28;20486;-79
2023/04/16 08:45:33;;;;;;;53.75;20.45;;;;;;;8.65;100.00;102007.34;5040256;28;20731;-79
2023/04/16 08:48:00;;;;;;;60.42;20.63;;;;;;;8.86;100.00;102006.69;5050476;28;20032;-79
2023/04/16 08:50:27;;;;;;;50.35;19.77;;;;;;;8.82;100.00;102010.44;5065961;28;20076;-79
2023/04/16 08:52:58;;;;;;;48.40;20.35;;;;;;;8.86;100.00;102009.28;5044470;28;20036;-79
2023/04/16 08:55:41;;;;;;;49.00;20.75;;;;;;;8.89;100.00;102012.47;5046516;28;20041;-79
2023/04/16 08:58:13;;;;;;;45.20;20.50;;;;;;;8.94;100.00;102014.69;5044739;28;20035;-79
2023/04/16 09:00:40;;;;;;;42.30;19.13;;;;;;;8.98;100.00;102023.03;5061408;28;20933;-80
2023/04/16 09:03:06;;;;;;;47.33;20.33;;;;;;;8.99;100.00;102011.78;5063696;28;20506;-79
2023/04/16 09:05:32;;;;;;;47.17;21.42;;;;;;;8.94;100.00;102015.50;5045016;28;20445;-80
2023/04/16 09:07:58;;;;;;;49.05;21.17;;;;;;;9.01;100.00;102009.88;5046289;28;20051;-79
2023/04/16 09:10:25;;;;;;;49.65;24.02;;;;;;;9.14;100.00;102014.00;5060913;28;20553;-79
2023/04/16 09:12:54;;;;;;;48.38;22.00;;;;;;;9.10;100.00;102022.13;5050468;28;20033;-79
2023/04/16 09:15:20;;;;;;;65.20;26.98;;;;;;;9.12;100.00;102018.47;5032458;28;20418;-80
2023/04/16 09:17:45;;;;;;;55.85;23.38;;;;;;;9.10;100.00;102015.19;5043702;28;20032;-79
2023/04/16 09:20:11;;;;;;;57.15;23.40;;;;;;;9.12;100.00;102017.66;5043234;28;20044;-79
2023/04/16 09:22:38;;;;;;;52.78;20.88;;;;;;;9.19;100.00;102028.34;5046449;28;20120;-79
2023/04/16 09:25:04;;;;;;;52.85;22.65;;;;;;;9.31;100.00;102015.31;5031530;28;20039;-79
2023/04/16 09:27:30;;;;;;;48.28;20.75;;;;;;;9.42;100.00;102024.00;5046485;28;20036;-78
2023/04/16 09:29:56;;;;;;;47.05;21.48;;;;;;;9.52;100.00;102020.56;5045293;28;20036;-79
2023/04/16 09:32:27;;;;;;;50.85;21.40;;;;;;;9.64;100.00;102015.38;5065042;28;20016;-77
2023/04/16 09:34:55;;;;;;;47.60;21.48;;;;;;;9.79;100.00;102023.72;5079016;28;20051;-80
2023/04/16 09:37:20;;;;;;;44.15;22.15;;;;;;;9.88;100.00;102030.78;5063553;28;20047;-79
2023/04/16 09:39:54;;;;;;;39.42;20.40;;;;;;;9.98;98.99;102033.44;5046418;28;20040;-80
2023/04/16 09:42:27;;;;;;;50.30;22.05;;;;;;;10.26;97.71;102025.09;5046903;28;20033;-79
2023/04/16 09:44:54;;;;;;;55.35;21.77;;;;;;;10.37;97.47;102026.03;5031397;28;20032;-79
2023/04/16 09:47:20;;;;;;;45.78;19.75;;;;;;;10.45;97.62;102026.25;5061770;28;20688;-79
2023/04/16 09:49:46;;;;;;;47.35;18.55;;;;;;;10.48;95.24;102026.81;5064130;28;20032;-79
2023/04/16 09:52:21;;;;;;;43.90;19.65;;;;;;;10.65;95.02;102022.84;5032291;28;20040;-79
2023/04/16 09:54:48;;;;;;;43.55;20.77;;;;;;;10.82;95.72;102024.03;5047596;28;20058;-78
2023/04/16 09:57:19;;;;;;;44.25;19.90;;;;;;;11.03;95.10;102028.38;5074230;28;20083;-80
2023/04/16 09:59:45;;;;;;;51.33;22.30;;;;;;;11.42;93.17;102020.75;5047596;28;20078;-81
2023/04/16 10:02:11;;;;;;;52.60;24.13;;;;;;;11.62;91.97;102021.63;5058745;28;20036;-80
2023/04/16 10:04:49;;;;;;;54.15;23.15;;;;;;;12.10;90.82;102018.31;5048467;28;20122;-80
2023/04/16 10:07:15;;;;;;;44.40;18.45;;;;;;;12.16;87.58;102022.16;5044320;28;20655;-79
2023/04/16 10:09:41;;;;;;;41.33;19.58;;;;;;;12.20;87.04;102016.53;5046707;28;20078;-78
2023/04/16 10:12:07;;;;;;;36.10;18.83;;;;;;;12.43;87.71;102031.84;5027361;28;20049;-80
2023/04/16 10:14:33;;;;;;;36.45;17.63;;;;;;;12.36;83.92;102022.97;5046770;28;20525;-79
2023/04/16 10:16:59;;;;;;;39.08;18.73;;;;;;;12.26;84.51;102025.56;5062577;28;20060;-80
2023/04/16 10:19:26;;;;;;;39.55;18.92;;;;;;;12.48;84.56;102015.84;5048250;28;20418;-79
2023/04/16 10:21:52;;;;;;;40.00;17.70;;;;;;;12.64;84.99;102019.50;5062240;28;20029;-80
2023/04/16 10:24:18;;;;;;;49.00;20.40;;;;;;;12.75;82.94;102015.94;5050436;28;20040;-80
2023/04/16 10:26:44;;;;;;;30.40;16.95;;;;;;;13.07;83.75;102016.50;5046435;28;20040;-78
2023/04/16 10:29:12;;;;;;;37.22;16.33;;;;;;;12.98;80.18;102019.00;5043609;28;20499;-79
2023/04/16 10:31:39;;;;;;;36.40;16.88;;;;;;;12.91;80.57;102017.94;5051609;28;20043;-79
2023/04/16 10:34:07;;;;;;;31.20;16.27;;;;;;;13.33;81.66;102012.31;5048590;28;20036;-79
2023/04/16 10:36:36;;;;;;;35.25;17.98;;;;;;;13.71;80.56;102007.88;5031248;28;20033;-79
2023/04/16 10:39:02;;;;;;;32.92;17.52;;;;;;;13.42;80.05;102018.44;5045969;28;20119;-78
2023/04/16 10:41:28;;;;;;;33.63;16.58;;;;;;;13.28;78.57;102011.06;5062042;28;20127;-79
2023/04/16 10:44:08;;;;;;;34.03;16.63;;;;;;;13.56;78.91;102012.75;5081791;28;20028;-79
2023/04/16 10:46:37;;;;;;;33.58;16.58;;;;;;;13.65;78.54;102012.84;5033479;28;20082;-79
2023/04/16 10:49:23;;;;;;;32.75;15.45;;;;;;;13.73;77.24;102008.53;5029274;28;20097;-79
2023/04/16 10:52:02;;;;;;;32.85;16.52;;;;;;;13.50;78.96;102017.72;5045461;28;20040;-79
2023/04/16 10:54:29;;;;;;;31.70;16.23;;;;;;;13.35;77.42;102013.00;5043700;28;20025;-78
2023/04/16 10:56:56;;;;;;;29.80;15.50;;;;;;;13.83;76.24;102013.69;5045178;28;20060;-79
2023/04/16 10:59:23;;;;;;;28.30;14.98;;;;;;;13.93;74.45;102011.00;5036566;28;20029;-79
2023/04/16 11:01:54;;;;;;;29.85;14.70;;;;;;;13.44;74.65;102013.91;5031348;28;20040;-77
2023/04/16 11:04:20;;;;;;;28.38;14.77;;;;;;;13.28;76.60;102011.06;5016079;28;20032;-78
2023/04/16 11:07:04;;;;;;;28.77;13.85;;;;;;;12.99;77.24;102007.63;5016599;28;20198;-79
2023/04/16 11:10:04;;;;;;;27.75;14.57;;;;;;;13.62;78.70;102004.34;5034599;28;20032;-79